Time;durP1;ratioP1;P1;durP2;ratioP2;P2;SDS_P1;SDS_P2;PMS_P1;PMS_P2;Temp;Humidity;BMP_temperature;BMP_pressure;BME280_temperature;BME280_humidity;BME280_pressure;Samples;Min_cycle;Max_cycle;Signal;HPM_P1;HPM_P2
2023/04/09 00:00:38;;;;;;;17.50;7.70;;;;;;;8.99;48.62;100451.31;5065467;28;20486;-52
2023/04/09 00:03:04;;;;;;;17.38;8.65;;;;;;;8.98;48.66;100448.72;5067305;28;20093;-50
2023/04/09 00:05:30;;;;;;;14.52;7.90;;;;;;;8.96;48.58;100447.88;5077874;28;20043;-52
2023/04/09 00:07:56;;;;;;;13.95;8.20;;;;;;;8.95;48.65;100444.44;5078714;28;20041;-51
2023/04/09 00:10:22;;;;;;;11.20;7.97;;;;;;;8.97;48.87;100441.81;5065697;28;20069;-54
2023/04/09 00:12:48;;;;;;;20.23;8.30;;;;;;;8.96;48.64;100451.31;5066303;28;20090;-48
2023/04/09 00:15:14;;;;;;;17.30;8.30;;;;;;;8.94;48.49;100445.34;5064173;28;20040;-49
2023/04/09 00:17:40;;;;;;;14.27;8.32;;;;;;;8.96;48.94;100445.28;5064935;28;20047;-52
2023/04/09 00:20:07;;;;;;;16.85;8.20;;;;;;;8.92;48.96;100450.53;5079400;28;20048;-48
2023/04/09 00:22:33;;;;;;;13.82;8.23;;;;;;;8.92;48.73;100453.13;5075879;28;20609;-52
2023/04/09 00:24:59;;;;;;;16.42;8.50;;;;;;;8.89;48.68;100441.94;5065185;28;20036;-54
2023/04/09 00:27:25;;;;;;;13.00;7.60;;;;;;;8.67;48.81;100407.72;5065711;28;20126;-54
2023/04/09 00:29:53;;;;;;;14.02;7.75;;;;;;;8.89;48.85;100452.31;5091624;28;20035;-50
2023/04/09 00:32:19;;;;;;;14.18;8.27;;;;;;;8.86;48.93;100442.84;5084005;28;20599;-54
2023/04/09 00:34:45;;;;;;;16.58;8.05;;;;;;;8.89;49.00;100444.56;5082107;28;20131;-53
2023/04/09 00:37:11;;;;;;;16.70;8.85;;;;;;;8.89;49.11;100445.41;5060092;28;20058;-53
2023/04/09 00:39:37;;;;;;;15.15;8.10;;;;;;;8.79;48.68;100436.03;5084645;28;20497;-52
2023/04/09 00:42:03;;;;;;;15.68;9.25;;;;;;;8.75;48.77;100428.31;5070080;28;20037;-50
2023/04/09 00:44:29;;;;;;;13.35;8.70;;;;;;;8.89;49.04;100452.31;5072445;28;20039;-50
2023/04/09 00:46:57;;;;;;;14.45;8.40;;;;;;;8.88;49.16;100448.88;5086472;28;20606;-51
2023/04/09 00:49:25;;;;;;;15.88;8.25;;;;;;;8.91;48.71;100451.41;5084760;28;20080;-52
2023/04/09 00:51:51;;;;;;;18.25;8.98;;;;;;;8.92;48.59;100452.25;5072049;28;20040;-52
2023/04/09 00:54:17;;;;;;;14.32;8.57;;;;;;;8.92;48.85;100453.13;5084443;28;20535;-51
2023/04/09 00:56:44;;;;;;;12.90;8.40;;;;;;;8.66;48.73;100387.84;5041388;28;20036;-49
2023/04/09 00:59:10;;;;;;;13.48;8.60;;;;;;;8.97;48.94;100441.81;5088402;28;20040;-51
2023/04/09 01:01:36;;;;;;;13.82;8.48;;;;;;;8.76;49.08;100404.97;5070180;28;20045;-48
2023/04/09 01:04:02;;;;;;;14.25;8.85;;;;;;;8.94;48.87;100437.56;5085731;28;20032;-50
2023/04/09 01:06:41;;;;;;;17.42;8.73;;;;;;;8.93;48.82;100435.84;5068401;28;20044;-52
2023/04/09 01:09:13;;;;;;;17.70;9.15;;;;;;;8.91;49.01;100443.63;5068869;28;20420;-50
2023/04/09 01:11:45;;;;;;;13.27;8.48;;;;;;;8.92;48.88;100441.88;5068545;28;20045;-50
2023/04/09 01:14:26;;;;;;;15.75;8.38;;;;;;;8.93;49.21;100447.06;5025679;28;20044;-51
2023/04/09 01:17:05;;;;;;;15.75;8.18;;;;;;;8.96;49.21;100445.28;5068805;28;20044;-51
2023/04/09 01:19:42;;;;;;;15.57;8.25;;;;;;;8.96;49.65;100440.09;5088910;28;20037;-51
2023/04/09 01:22:29;;;;;;;15.35;8.52;;;;;;;8.92;49.35;100439.31;5070123;28;20115;-47
2023/04/09 01:25:25;;;;;;;14.30;8.20;;;;;;;8.98;49.57;100443.53;5052376;28;20147;-49
2023/04/09 01:28:07;;;;;;;21.95;11.27;;;;;;;8.97;49.17;100454.78;5047438;28;20131;-52
2023/04/09 01:30:33;;;;;;;12.82;7.65;;;;;;;8.97;49.45;100452.19;5073657;28;20040;-49
2023/04/09 01:33:00;;;;;;;18.20;8.60;;;;;;;9.02;49.07;100445.19;5103869;28;20558;-51
2023/04/09 01:35:27;;;;;;;14.73;8.40;;;;;;;8.98;49.62;100435.75;5073230;28;20099;-50
2023/04/09 01:37:53;;;;;;;17.60;8.10;;;;;;;9.02;49.43;100450.38;5077894;28;20055;-53
2023/04/09 01:40:19;;;;;;;16.08;7.97;;;;;;;9.03;49.50;100449.50;5089306;28;20089;-50
2023/04/09 01:42:46;;;;;;;13.20;7.85;;;;;;;8.88;49.30;100425.53;5072100;28;20036;-49
2023/04/09 01:45:13;;;;;;;12.07;7.93;;;;;;;8.88;49.41;100419.50;5070497;28;20165;-49
2023/04/09 01:47:40;;;;;;;19.45;8.43;;;;;;;9.02;49.36;100442.59;5052665;28;20135;-50
2023/04/09 01:50:07;;;;;;;15.52;8.07;;;;;;;8.99;49.40;100440.06;5079117;28;20047;-50
2023/04/09 01:52:33;;;;;;;16.17;9.27;;;;;;;9.07;49.73;100452.03;5062053;28;20044;-49
2023/04/09 01:54:59;;;;;;;22.25;9.13;;;;;;;9.10;49.39;100451.13;5070392;28;20074;-47
2023/04/09 01:57:25;;;;;;;16.00;8.48;;;;;;;9.11;49.53;100458.88;5068079;28;20040;-50
2023/04/09 01:59:51;;;;;;;23.85;9.45;;;;;;;9.12;49.59;100460.59;5082982;28;20048;-54
2023/04/09 02:02:22;;;;;;;20.25;8.77;;;;;;;9.17;49.65;100455.31;5084411;28;20129;-48
2023/04/09 02:04:50;;;;;;;20.58;8.55;;;;;;;9.17;49.42;100452.72;5068266;28;20044;-50
2023/04/09 02:07:34;;;;;;;22.50;8.43;;;;;;;9.22;49.58;100453.50;5097238;27;20036;-46
2023/04/09 02:10:00;;;;;;;16.45;9.00;;;;;;;9.26;49.70;100447.41;5040885;28;20162;-50
2023/04/09 02:12:26;;;;;;;18.35;9.38;;;;;;;9.28;49.25;100445.63;5072358;28;20036;-54
2023/04/09 02:14:52;;;;;;;17.95;8.55;;;;;;;9.34;49.86;100448.13;5050850;28;20048;-50
2023/04/09 02:17:19;;;;;;;13.80;8.68;;;;;;;9.37;49.54;100455.00;5068551;28;20530;-49
2023/04/09 02:19:46;;;;;;;15.38;8.45;;;;;;;9.20;49.84;100427.59;5058432;28;20106;-53
2023/04/09 02:22:13;;;;;;;17.33;9.50;;;;;;;9.04;49.46;100397.63;5073574;28;20143;-51
2023/04/09 02:24:40;;;;;;;14.50;8.40;;;;;;;9.32;49.35;100447.28;5068779;28;20040;-51
2023/04/09 02:27:06;;;;;;;16.63;9.02;;;;;;;9.06;49.23;100405.34;5058693;28;20039;-53
2023/04/09 02:29:32;;;;;;;19.13;9.02;;;;;;;9.33;49.13;100449.00;5087869;28;20058;-50
2023/04/09 02:31:58;;;;;;;20.63;8.75;;;;;;;9.29;49.74;100436.97;5076527;28;20044;-48
2023/04/09 02:34:24;;;;;;;14.77;9.05;;;;;;;9.15;49.55;100418.19;5098509;28;20123;-50
2023/04/09 02:36:50;;;;;;;23.80;9.48;;;;;;;9.17;49.89;100437.16;5082375;28;20072;-49
2023/04/09 02:39:16;;;;;;;18.63;8.88;;;;;;;9.15;49.86;100431.16;5078118;28;20044;-51
2023/04/09 02:41:43;;;;;;;15.95;9.10;;;;;;;9.23;49.60;100452.63;5083811;28;20043;-55
2023/04/09 02:44:09;;;;;;;19.17;8.82;;;;;;;9.21;49.44;100451.81;5065349;28;20059;-49
2023/04/09 02:46:35;;;;;;;14.85;8.80;;;;;;;9.19;49.55;100451.84;5088016;28;20133;-51
2023/04/09 02:49:01;;;;;;;17.85;9.18;;;;;;;9.16;49.20;100441.50;5063259;28;20081;-54
2023/04/09 02:51:27;;;;;;;18.42;8.40;;;;;;;9.14;49.57;100442.41;5076953;28;20035;-50
2023/04/09 02:53:53;;;;;;;16.70;8.85;;;;;;;9.14;49.74;100451.06;5083928;28;20032;-49
2023/04/09 02:56:19;;;;;;;16.38;8.48;;;;;;;9.15;49.70;100446.72;5033463;28;20542;-48
2023/04/09 02:58:48;;;;;;;17.92;9.00;;;;;;;8.99;50.06;100420.19;5053689;28;20044;-48
2023/04/09 03:01:14;;;;;;;14.75;8.82;;;;;;;9.10;50.09;100444.22;5085981;28;20097;-50
2023/04/09 03:03:41;;;;;;;18.50;9.13;;;;;;;9.10;49.95;100443.34;5086553;28;20050;-48
2023/04/09 03:06:07;;;;;;;17.77;9.18;;;;;;;9.04;50.11;100440.84;5061685;28;20121;-50
2023/04/09 03:08:33;;;;;;;20.58;8.77;;;;;;;8.88;50.11;100422.09;5069057;28;20048;-55
2023/04/09 03:10:59;;;;;;;17.85;9.27;;;;;;;8.89;49.97;100421.22;5078193;28;20115;-51
2023/04/09 03:13:26;;;;;;;16.30;8.88;;;;;;;9.04;50.04;100444.31;5066094;28;20525;-49
2023/04/09 03:15:52;;;;;;;21.40;9.43;;;;;;;9.05;50.18;100451.22;5075331;28;20432;-51
2023/04/09 03:18:19;;;;;;;15.77;9.30;;;;;;;9.04;50.29;100451.22;5085988;28;20044;-49
2023/04/09 03:20:45;;;;;;;18.25;10.13;;;;;;;9.05;50.38;100459.00;5080903;28;20247;-51
2023/04/09 03:23:12;;;;;;;21.77;9.75;;;;;;;9.02;50.47;100455.56;5057723;28;20456;-54
2023/04/09 03:25:43;;;;;;;26.05;10.23;;;;;;;9.04;50.25;100448.63;5078222;28;20105;-52
2023/04/09 03:28:14;;;;;;;20.23;9.27;;;;;;;9.03;50.33;100441.72;5049901;28;20044;-49
2023/04/09 03:30:44;;;;;;;22.48;9.60;;;;;;;9.11;50.54;100455.41;5098944;28;20064;-49
2023/04/09 03:33:11;;;;;;;17.08;10.40;;;;;;;9.14;50.31;100452.78;5100108;28;20047;-51
2023/04/09 03:35:50;;;;;;;18.30;9.32;;;;;;;9.12;50.38;100455.41;5054378;28;20036;-50
2023/04/09 03:38:23;;;;;;;17.08;9.27;;;;;;;9.13;50.53;100458.84;5077856;28;20044;-52
2023/04/09 03:40:49;;;;;;;16.58;9.57;;;;;;;9.15;50.32;100450.19;5071557;28;20057;-52
2023/04/09 03:43:15;;;;;;;26.05;10.38;;;;;;;9.20;50.28;100447.50;5068406;28;20045;-52
2023/04/09 03:45:47;;;;;;;20.45;9.70;;;;;;;9.21;50.50;100455.25;5056972;28;20075;-54
2023/04/09 03:48:22;;;;;;;23.42;9.70;;;;;;;9.25;50.36;100450.88;5084948;28;20109;-49
2023/04/09 03:50:49;;;;;;;19.83;10.00;;;;;;;9.23;50.76;100455.22;5076686;28;20045;-50
2023/04/09 03:53:22;;;;;;;22.08;10.45;;;;;;;9.17;50.27;100440.63;5066436;28;20130;-50
2023/04/09 03:55:48;;;;;;;22.77;10.70;;;;;;;9.23;50.54;100447.44;5044441;28;20131;-48
2023/04/09 03:58:20;;;;;;;21.27;10.25;;;;;;;9.28;50.30;100450.81;5078890;28;20077;-51
2023/04/09 04:00:47;;;;;;;19.85;10.45;;;;;;;9.27;50.31;100449.09;5066230;28;20045;-49
2023/04/09 04:03:31;;;;;;;19.50;10.93;;;;;;;9.27;50.38;100452.56;5070801;28;20028;-49
2023/04/09 04:06:34;;;;;;;17.48;10.48;;;;;;;9.35;50.25;100458.47;5051303;28;20044;-52
2023/04/09 04:09:20;;;;;;;21.33;11.52;;;;;;;9.41;50.23;100452.34;5071588;28;21996;-54
2023/04/09 04:12:12;;;;;;;21.70;10.45;;;;;;;9.49;50.21;100457.38;5081622;28;20139;-52
2023/04/09 04:14:58;;;;;;;19.23;11.07;;;;;;;9.56;50.12;100449.47;5072592;28;20079;-50
2023/04/09 04:17:31;;;;;;;19.25;9.80;;;;;;;9.73;49.88;100447.41;5087452;28;20118;-53
2023/04/09 04:19:58;;;;;;;24.58;10.70;;;;;;;9.64;49.75;100418.16;5053374;28;20040;-53
2023/04/09 04:22:24;;;;;;;20.85;10.70;;;;;;;9.72;49.11;100414.53;5089696;28;20123;-52
2023/04/09 04:24:53;;;;;;;21.67;11.13;;;;;;;9.98;49.21;100447.81;5065180;28;20139;-54
2023/04/09 04:27:21;;;;;;;22.45;11.27;;;;;;;10.08;49.48;100448.47;5089670;28;20040;-48
2023/04/09 04:29:47;;;;;;;19.67;10.98;;;;;;;10.19;48.96;100450.00;5074958;28;20131;-48
2023/04/09 04:32:34;;;;;;;17.92;10.43;;;;;;;10.34;48.86;100446.22;5072006;28;20040;-49
2023/04/09 04:35:05;;;;;;;23.42;10.77;;;;;;;10.23;48.54;100393.63;5080626;28;20538;-54
2023/04/09 04:37:31;;;;;;;18.73;11.50;;;;;;;10.52;48.04;100435.41;5064881;28;20452;-49
2023/04/09 04:40:04;;;;;;;21.90;11.05;;;;;;;10.70;47.72;100439.34;5072897;28;20040;-48
2023/04/09 04:42:36;;;;;;;22.58;10.70;;;;;;;10.75;47.52;100441.84;5071560;28;20130;-53
2023/04/09 04:45:08;;;;;;;25.13;12.13;;;;;;;10.86;47.51;100445.06;5070710;28;20550;-51
2023/04/09 04:47:43;;;;;;;21.38;10.70;;;;;;;10.89;47.33;100429.38;5088045;28;21421;-49
2023/04/09 04:50:09;;;;;;;22.13;11.13;;;;;;;10.89;47.17;100419.81;5090529;28;20063;-53
2023/04/09 04:52:52;;;;;;;20.85;10.70;;;;;;;10.83;46.80;100388.78;5073650;28;20105;-48
2023/04/09 04:55:21;;;;;;;17.80;10.75;;;;;;;11.13;46.76;100441.81;5083051;28;20502;-52
2023/04/09 04:57:51;;;;;;;16.90;10.65;;;;;;;11.07;46.94;100438.50;5055482;28;20040;-50
2023/04/09 05:00:17;;;;;;;18.58;11.32;;;;;;;11.06;46.53;100442.84;5081903;28;20047;-53
2023/04/09 05:02:44;;;;;;;18.30;11.15;;;;;;;11.16;46.50;100443.47;5072205;28;20051;-49
2023/04/09 05:05:33;;;;;;;25.48;12.02;;;;;;;11.29;46.38;100444.88;5061670;28;20051;-50
2023/04/09 05:08:00;;;;;;;19.90;10.57;;;;;;;11.53;46.19;100452.06;5085502;28;20140;-49
2023/04/09 05:10:26;;;;;;;18.55;11.35;;;;;;;11.57;45.99;100451.06;5065398;28;20503;-51
2023/04/09 05:12:52;;;;;;;18.73;10.45;;;;;;;11.54;45.74;100439.91;5071956;28;20043;-50
2023/04/09 05:15:26;;;;;;;18.98;11.27;;;;;;;11.67;45.67;100444.72;5078883;28;20055;-48
2023/04/09 05:17:53;;;;;;;23.50;11.25;;;;;;;11.91;44.88;100445.88;5087605;28;20336;-52
2023/04/09 05:20:19;;;;;;;18.77;10.80;;;;;;;12.03;44.92;100423.81;5076526;28;20051;-50
2023/04/09 05:22:52;;;;;;;20.13;11.43;;;;;;;12.16;44.40;100443.41;5070013;28;20127;-48
2023/04/09 05:25:24;;;;;;;19.38;10.75;;;;;;;11.81;44.45;100405.34;5091734;28;20043;-55
2023/04/09 05:27:50;;;;;;;20.50;11.18;;;;;;;12.15;44.74;100439.09;5089796;28;20044;-50
2023/04/09 05:30:16;;;;;;;18.92;11.45;;;;;;;12.12;44.45;100434.00;5080990;28;20042;-49
2023/04/09 05:32:42;;;;;;;21.45;11.52;;;;;;;12.07;44.24;100434.13;5089618;28;20048;-51
2023/04/09 05:35:09;;;;;;;19.27;11.48;;;;;;;12.13;44.08;100443.53;5085914;28;20047;-48
2023/04/09 05:37:39;;;;;;;21.08;11.35;;;;;;;12.11;44.35;100443.56;5077575;28;20422;-49
2023/04/09 05:40:06;;;;;;;20.08;11.38;;;;;;;12.04;44.16;100451.56;5077203;28;20145;-52
2023/04/09 05:42:32;;;;;;;16.55;10.43;;;;;;;11.86;44.04;100424.28;5068873;28;20033;-52
2023/04/09 05:45:02;;;;;;;22.80;11.05;;;;;;;11.95;44.19;100428.38;5052633;28;20147;-51
2023/04/09 05:47:30;;;;;;;18.92;11.57;;;;;;;12.28;43.69;100466.53;5068734;28;20040;-49
2023/04/09 05:50:16;;;;;;;20.20;11.32;;;;;;;12.20;44.01;100465.88;5082584;28;20048;-52
2023/04/09 05:52:42;;;;;;;35.28;13.00;;;;;;;12.13;43.83;100464.38;5077273;28;20048;-49
2023/04/09 05:55:10;;;;;;;23.52;11.88;;;;;;;12.22;44.03;100464.97;5074321;28;20532;-50
2023/04/09 05:57:44;;;;;;;22.45;11.60;;;;;;;12.38;43.86;100469.72;5083927;28;20080;-55
2023/04/09 06:00:11;;;;;;;18.60;12.40;;;;;;;12.55;43.29;100459.66;5074602;28;20100;-52
2023/04/09 06:02:43;;;;;;;19.10;11.93;;;;;;;12.65;42.65;100435.88;5073725;28;20032;-50
2023/04/09 06:05:10;;;;;;;27.10;12.25;;;;;;;12.89;42.65;100462.06;5057477;28;20507;-52
2023/04/09 06:07:36;;;;;;;22.58;10.85;;;;;;;13.19;42.11;100460.31;5088177;28;20043;-51
2023/04/09 06:10:02;;;;;;;20.55;11.65;;;;;;;13.33;42.08;100471.13;5088134;28;20090;-47
2023/04/09 06:12:29;;;;;;;22.90;11.90;;;;;;;13.20;41.81;100472.44;5089028;28;20040;-51
2023/04/09 06:14:55;;;;;;;20.58;11.52;;;;;;;13.19;42.16;100463.75;5087740;28;20076;-53
2023/04/09 06:17:21;;;;;;;20.88;12.43;;;;;;;13.63;41.09;100453.56;5068967;28;20173;-54
2023/04/09 06:19:46;;;;;;;22.42;11.52;;;;;;;14.21;40.58;100468.91;5082257;28;20040;-50
2023/04/09 06:22:12;;;;;;;22.60;11.65;;;;;;;14.95;39.60;100478.31;5080857;28;20036;-53
2023/04/09 06:24:38;;;;;;;23.73;12.45;;;;;;;15.42;38.89;100472.91;5049518;28;20610;-52
2023/04/09 06:27:04;;;;;;;30.35;14.77;;;;;;;16.00;38.12;100453.78;5079566;28;20043;-54
2023/04/09 06:29:30;;;;;;;26.70;13.10;;;;;;;16.70;36.59;100460.22;5084274;28;20773;-53
2023/04/09 06:31:56;;;;;;;24.40;12.88;;;;;;;17.17;36.09;100477.19;5083848;28;20044;-53
2023/04/09 06:34:22;;;;;;;21.40;12.50;;;;;;;17.57;35.15;100470.84;5052821;28;20092;-55
2023/04/09 06:36:48;;;;;;;18.15;11.98;;;;;;;17.57;34.56;100483.97;5050851;28;20040;-52
2023/04/09 06:39:14;;;;;;;24.05;12.23;;;;;;;17.81;34.01;100481.06;5085618;28;20431;-51
2023/04/09 06:41:40;;;;;;;20.23;12.50;;;;;;;17.91;33.59;100484.91;5087340;28;20040;-52
2023/04/09 06:44:20;;;;;;;19.17;11.60;;;;;;;18.86;32.44;100486.81;5068711;28;20056;-54
2023/04/09 06:46:46;;;;;;;23.65;12.85;;;;;;;19.19;32.00;100463.84;5082318;28;20044;-56
2023/04/09 06:49:12;;;;;;;20.48;12.73;;;;;;;19.24;31.83;100484.66;5065090;28;20070;-50
2023/04/09 06:51:38;;;;;;;18.27;12.13;;;;;;;18.99;31.94;100493.97;5087556;28;20043;-50
2023/04/09 06:54:04;;;;;;;21.00;12.50;;;;;;;18.38;32.39;100488.53;5088716;28;20085;-50
2023/04/09 06:56:30;;;;;;;25.25;12.80;;;;;;;18.38;32.50;100482.41;5075282;28;20047;-53
2023/04/09 06:58:56;;;;;;;24.30;12.85;;;;;;;18.89;31.96;100484.03;5072175;28;20044;-51
2023/04/09 07:01:21;;;;;;;20.95;13.00;;;;;;;19.54;30.87;100485.53;5083369;28;20058;-49
2023/04/09 07:03:47;;;;;;;21.23;13.55;;;;;;;20.82;29.84;100477.72;5086413;28;20520;-50
2023/04/09 07:06:13;;;;;;;22.20;12.65;;;;;;;22.48;28.15;100496.47;5082468;28;20049;-51
2023/04/09 07:08:39;;;;;;;22.50;12.90;;;;;;;22.95;26.98;100491.31;5085918;28;20036;-52
2023/04/09 07:11:05;;;;;;;19.75;13.68;;;;;;;23.52;25.89;100486.19;5087846;28;20527;-52
2023/04/09 07:13:31;;;;;;;17.73;13.48;;;;;;;23.79;25.43;100490.38;5066685;28;20064;-51
2023/04/09 07:15:57;;;;;;;20.67;12.68;;;;;;;24.35;24.51;100462.06;5083133;28;20061;-52
2023/04/09 07:18:23;;;;;;;22.98;14.20;;;;;;;25.03;23.78;100485.81;5086927;28;20503;-46
2023/04/09 07:20:51;;;;;;;26.08;13.40;;;;;;;25.73;23.02;100487.97;5087766;28;20051;-51
2023/04/09 07:23:17;;;;;;;25.38;13.32;;;;;;;24.82;23.72;100483.06;5085341;28;20044;-48
2023/04/09 07:25:43;;;;;;;20.50;12.70;;;;;;;24.31;23.94;100482.75;5086742;28;20040;-52
2023/04/09 07:28:10;;;;;;;20.70;12.30;;;;;;;24.36;23.60;100482.38;5068652;28;20562;-54
2023/04/09 07:30:36;;;;;;;17.95;11.70;;;;;;;24.19;23.88;100483.69;5078909;28;20047;-52
2023/04/09 07:33:02;;;;;;;21.35;12.52;;;;;;;24.53;23.27;100483.72;5047812;28;20068;-46
2023/04/09 07:35:28;;;;;;;16.30;11.65;;;;;;;24.52;23.26;100479.34;5086915;28;20079;-50
2023/04/09 07:37:54;;;;;;;17.35;10.88;;;;;;;23.79;23.48;100490.38;5066744;28;20040;-53
2023/04/09 07:40:20;;;;;;;16.00;10.93;;;;;;;22.14;24.86;100471.53;5070916;28;20376;-53
2023/04/09 07:42:46;;;;;;;19.67;11.65;;;;;;;22.14;25.31;100485.59;5083502;28;20555;-55
2023/04/09 07:45:12;;;;;;;18.40;11.48;;;;;;;22.05;25.10;100494.19;5078055;28;20549;-50
2023/04/09 07:47:41;;;;;;;18.88;11.70;;;;;;;21.50;25.89;100484.66;5074323;28;20131;-54
2023/04/09 07:50:08;;;;;;;21.83;11.35;;;;;;;21.63;25.74;100465.31;5080061;28;20420;-53
2023/04/09 07:52:34;;;;;;;18.02;11.15;;;;;;;21.66;25.97;100491.56;5066698;28;20040;-57
2023/04/09 07:55:00;;;;;;;15.15;11.88;;;;;;;21.56;25.82;100484.22;5081483;28;20601;-53
2023/04/09 07:57:26;;;;;;;25.23;12.93;;;;;;;21.38;26.17;100482.81;5079868;28;20258;-51
2023/04/09 07:59:53;;;;;;;22.80;11.52;;;;;;;21.54;26.21;100483.50;5082429;28;20036;-53
2023/04/09 08:02:19;;;;;;;23.63;11.23;;;;;;;22.31;25.47;100481.75;5082949;28;20123;-52
2023/04/09 08:04:44;;;;;;;22.15;11.48;;;;;;;21.52;25.96;100476.59;5088351;28;20130;-52
2023/04/09 08:07:10;;;;;;;21.80;12.65;;;;;;;22.08;25.56;100474.59;5052362;28;21103;-50
2023/04/09 08:09:36;;;;;;;20.35;11.55;;;;;;;22.63;25.12;100485.63;5090678;28;20044;-49
2023/04/09 08:12:03;;;;;;;20.08;11.55;;;;;;;22.83;24.55;100467.47;5086856;28;20139;-49
2023/04/09 08:14:29;;;;;;;21.67;11.50;;;;;;;22.83;24.54;100449.75;5083058;28;20052;-56
2023/04/09 08:16:55;;;;;;;16.52;10.90;;;;;;;23.17;24.25;100485.28;5066982;28;20118;-52
2023/04/09 08:19:21;;;;;;;19.63;10.85;;;;;;;23.27;23.98;100470.38;5071544;28;20036;-52
2023/04/09 08:21:50;;;;;;;20.13;10.95;;;;;;;23.23;23.96;100464.47;5052948;28;20565;-51
2023/04/09 08:24:16;;;;;;;;;;;;;;;24.47;23.10;100469.09;5062526;28;20040;-55
2023/04/09 08:26:42;;;;;;;18.50;11.00;;;;;;;24.98;22.23;100471.19;5091656;28;19922;-52
2023/04/09 08:29:10;;;;;;;19.88;12.10;;;;;;;24.96;22.24;100460.69;5083616;28;20049;-51
2023/04/09 08:31:36;;;;;;;23.58;10.07;;;;;;;25.44;21.73;100477.06;5069936;28;20040;-54
2023/04/09 08:34:03;;;;;;;14.38;10.00;;;;;;;25.31;21.65;100471.09;5069679;28;20048;-52
2023/04/09 08:36:30;;;;;;;16.33;10.20;;;;;;;25.54;21.40;100447.88;5082781;28;20127;-52
2023/04/09 08:38:56;;;;;;;17.50;10.10;;;;;;;25.33;21.25;100475.28;5048390;28;20059;-52
2023/04/09 08:41:24;;;;;;;17.02;11.30;;;;;;;24.20;22.40;100456.16;5085143;28;20036;-53
2023/04/09 08:43:51;;;;;;;19.35;11.30;;;;;;;25.35;21.66;100461.88;5076922;28;20438;-50
2023/04/09 08:46:18;;;;;;;20.83;11.20;;;;;;;25.78;21.42;100456.47;5090957;28;20051;-55
2023/04/09 08:48:45;;;;;;;17.90;11.57;;;;;;;25.89;21.26;100458.22;5068344;28;20432;-54
2023/04/09 08:51:15;;;;;;;23.02;11.95;;;;;;;24.07;22.64;100455.41;5074688;28;20083;-54
2023/04/09 08:53:46;;;;;;;22.40;12.15;;;;;;;22.61;23.99;100433.72;5088077;28;20117;-51
2023/04/09 08:56:14;;;;;;;23.58;11.32;;;;;;;23.45;23.65;100445.13;5074230;28;20044;-55
2023/04/09 08:58:44;;;;;;;21.90;11.40;;;;;;;23.48;23.78;100436.09;5086451;28;20048;-54
2023/04/09 09:01:27;;;;;;;15.93;10.90;;;;;;;23.53;23.56;100449.88;5088031;28;20031;-49
2023/04/09 09:03:55;;;;;;;17.00;10.60;;;;;;;23.44;23.41;100437.28;5079010;28;20764;-52
2023/04/09 09:06:23;;;;;;;20.60;11.13;;;;;;;23.07;23.80;100441.81;5070676;28;20040;-52
2023/04/09 09:09:11;;;;;;;15.45;9.75;;;;;;;22.88;23.86;100447.63;5074964;28;20047;-51
2023/04/09 09:11:42;;;;;;;18.55;9.90;;;;;;;22.49;24.34;100450.47;5055785;28;20063;-56
2023/04/09 09:14:12;;;;;;;19.17;9.52;;;;;;;23.88;23.36;100440.03;5074284;28;20040;-52
2023/04/09 09:16:41;;;;;;;16.42;9.40;;;;;;;24.65;22.15;100442.84;5089053;28;20040;-52
2023/04/09 09:19:08;;;;;;;14.70;8.50;;;;;;;25.35;21.47;100448.56;5052567;28;20113;-52
2023/04/09 09:21:35;;;;;;;12.02;8.50;;;;;;;25.84;21.24;100445.28;5088649;28;20048;-53
2023/04/09 09:24:02;;;;;;;9.40;7.00;;;;;;;25.69;20.84;100455.44;5071141;28;20036;-50
2023/04/09 09:26:29;;;;;;;12.32;8.57;;;;;;;25.62;20.74;100446.28;5071325;28;20036;-51
2023/04/09 09:28:59;;;;;;;18.17;9.15;;;;;;;25.61;20.88;100452.56;5089678;28;20161;-53
2023/04/09 09:31:25;;;;;;;13.23;8.35;;;;;;;26.89;20.24;100422.69;5088367;28;20040;-59
2023/04/09 09:33:51;;;;;;;16.73;9.13;;;;;;;28.06;19.12;100435.78;5081387;28;20047;-53
2023/04/09 09:36:31;;;;;;;11.82;7.90;;;;;;;28.61;18.63;100424.16;5087004;28;20048;-51
2023/04/09 09:39:02;;;;;;;11.50;7.07;;;;;;;28.83;17.79;100438.97;5087373;28;20570;-55
2023/04/09 09:41:28;;;;;;;11.93;7.03;;;;;;;28.62;17.82;100430.34;5071343;28;20419;-52
2023/04/09 09:43:54;;;;;;;10.02;7.60;;;;;;;29.89;17.04;100428.19;5083749;28;20044;-53
2023/04/09 09:46:21;;;;;;;10.85;8.18;;;;;;;30.75;16.32;100432.63;5088367;28;20035;-52
2023/04/09 09:48:48;;;;;;;11.55;8.68;;;;;;;30.40;16.39;100430.97;5085182;28;20131;-54
2023/04/09 09:51:14;;;;;;;12.43;8.30;;;;;;;31.21;15.90;100429.34;5082890;28;20158;-52
2023/04/09 09:53:43;;;;;;;10.82;7.55;;;;;;;32.60;15.41;100428.91;5082379;28;20044;-52
2023/04/09 09:56:21;;;;;;;12.13;8.35;;;;;;;32.83;14.69;100436.22;5089164;28;20043;-54
2023/04/09 09:59:09;;;;;;;12.45;8.77;;;;;;;31.45;15.71;100436.59;5076999;28;20044;-54
2023/04/09 10:01:35;;;;;;;11.85;9.10;;;;;;;28.49;17.46;100425.34;5083135;28;20036;-52
2023/04/09 10:04:01;;;;;;;16.80;9.25;;;;;;;27.55;18.60;100429.03;5061208;28;20067;-53
2023/04/09 10:06:29;;;;;;;11.93;8.88;;;;;;;29.04;17.45;100414.59;5080869;28;20150;-50
2023/04/09 10:09:02;;;;;;;11.90;8.73;;;;;;;28.27;17.69;100419.53;5088118;28;20040;-53
2023/04/09 10:11:28;;;;;;;11.70;8.93;;;;;;;26.31;19.00;100419.03;5089486;28;20040;-53
2023/04/09 10:14:00;;;;;;;14.98;9.15;;;;;;;24.66;20.42;100381.53;5064363;28;20048;-57
2023/04/09 10:16:27;;;;;;;15.52;9.30;;;;;;;23.95;21.44;100412.03;5086358;28;20507;-59
2023/04/09 10:18:55;;;;;;;15.05;9.55;;;;;;;22.96;22.51;100413.44;5071723;28;20046;-53
2023/04/09 10:21:32;;;;;;;15.93;9.15;;;;;;;22.56;23.09;100419.94;5084559;28;20189;-54
2023/04/09 10:23:59;;;;;;;17.33;9.60;;;;;;;21.96;23.91;100415.38;5049940;28;20048;-52
2023/04/09 10:26:26;;;;;;;13.85;8.68;;;;;;;21.28;24.51;100412.13;5065839;28;20044;-54
2023/04/09 10:29:15;;;;;;;14.40;9.15;;;;;;;20.58;25.39;100414.03;5067815;28;20083;-55
2023/04/09 10:32:08;;;;;;;13.88;8.77;;;;;;;20.10;25.82;100415.28;5067091;28;20144;-52
2023/04/09 10:34:43;;;;;;;13.57;8.45;;;;;;;19.99;26.30;100402.78;5064007;28;20052;-51
2023/04/09 10:37:14;;;;;;;15.68;8.60;;;;;;;19.95;26.23;100384.56;5050084;28;20496;-54
2023/04/09 10:39:44;;;;;;;15.98;8.73;;;;;;;20.10;26.18;100402.94;5067307;28;20037;-54
2023/04/09 10:42:17;;;;;;;13.27;8.63;;;;;;;19.86;26.45;100399.19;5084028;28;20048;-52
2023/04/09 10:44:44;;;;;;;13.32;8.52;;;;;;;20.51;25.93;100404.84;5083648;28;20059;-53
2023/04/09 10:47:11;;;;;;;12.90;8.18;;;;;;;21.11;25.05;100392.91;5065898;28;20071;-49
2023/04/09 10:49:40;;;;;;;12.52;7.90;;;;;;;20.68;25.62;100401.94;5077307;28;20464;-52
2023/04/09 10:52:09;;;;;;;18.10;8.52;;;;;;;20.14;26.00;100401.84;5066811;28;20045;-49
2023/04/09 10:54:45;;;;;;;14.35;7.90;;;;;;;19.72;26.70;100405.31;5068063;28;20120;-51
2023/04/09 10:57:15;;;;;;;16.17;8.13;;;;;;;19.60;26.49;100402.56;5067023;28;20048;-54
2023/04/09 10:59:46;;;;;;;12.45;7.72;;;;;;;19.68;26.46;100413.53;5067133;28;20543;-53
2023/04/09 11:02:28;;;;;;;16.50;8.88;;;;;;;19.57;26.96;100395.69;5066773;28;20068;-50
2023/04/09 11:04:57;;;;;;;15.18;8.40;;;;;;;19.57;26.91;100408.03;5067872;28;20113;-53
2023/04/09 11:07:24;;;;;;;11.38;7.75;;;;;;;19.52;26.94;100403.03;5088032;28;20176;-51
2023/04/09 11:09:50;;;;;;;14.48;7.20;;;;;;;21.16;25.45;100400.56;5088608;28;20130;-54
2023/04/09 11:12:16;;;;;;;11.48;7.80;;;;;;;23.80;22.76;100409.72;5088484;28;20192;-55
2023/04/09 11:14:42;;;;;;;14.32;7.53;;;;;;;25.57;21.03;100405.88;5082384;28;20048;-51
2023/04/09 11:17:08;;;;;;;15.02;7.63;;;;;;;27.28;19.71;100408.34;5068177;28;20032;-49
2023/04/09 11:19:34;;;;;;;12.52;6.90;;;;;;;27.58;19.28;100403.88;5073884;28;20063;-50
2023/04/09 11:22:03;;;;;;;12.18;7.25;;;;;;;25.66;20.03;100398.91;5066729;28;20044;-51
2023/04/09 11:24:42;;;;;;;13.38;7.53;;;;;;;23.41;21.62;100401.16;5067731;28;20048;-54